sensor_id;sensor_type;location;lat;lon;timestamp;P1;durP1;ratioP1;P2;durP2;ratioP2
25069;SDS011;13064;48.162;11.536;2023-03-16T00:01:30;6.32;;;4.90;;
25069;SDS011;13064;48.162;11.536;2023-03-16T00:03:57;11.20;;;5.78;;
25069;SDS011;13064;48.162;11.536;2023-03-16T00:06:25;8.35;;;5.43;;
25069;SDS011;13064;48.162;11.536;2023-03-16T00:08:52;9.55;;;5.82;;
25069;SDS011;13064;48.162;11.536;2023-03-16T00:13:52;5.82;;;4.85;;
25069;SDS011;13064;48.162;11.536;2023-03-16T00:16:19;7.20;;;4.80;;
25069;SDS011;13064;48.162;11.536;2023-03-16T00:18:47;8.98;;;4.90;;
25069;SDS011;13064;48.162;11.536;2023-03-16T00:21:15;7.25;;;5.13;;
25069;SDS011;13064;48.162;11.536;2023-03-16T00:23:43;7.93;;;5.50;;
25069;SDS011;13064;48.162;11.536;2023-03-16T00:26:10;7.00;;;5.35;;
25069;SDS011;13064;48.162;11.536;2023-03-16T00:28:38;8.50;;;6.03;;
25069;SDS011;13064;48.162;11.536;2023-03-16T00:31:09;8.85;;;5.72;;
25069;SDS011;13064;48.162;11.536;2023-03-16T00:33:40;11.15;;;6.00;;
25069;SDS011;13064;48.162;11.536;2023-03-16T00:36:08;11.38;;;6.40;;
25069;SDS011;13064;48.162;11.536;2023-03-16T00:38:40;8.45;;;5.82;;
25069;SDS011;13064;48.162;11.536;2023-03-16T00:41:12;8.55;;;5.90;;
25069;SDS011;13064;48.162;11.536;2023-03-16T00:43:40;10.35;;;5.70;;
25069;SDS011;13064;48.162;11.536;2023-03-16T00:46:11;11.25;;;6.55;;
25069;SDS011;13064;48.162;11.536;2023-03-16T00:48:40;11.48;;;6.07;;
25069;SDS011;13064;48.162;11.536;2023-03-16T00:51:09;10.07;;;6.10;;
25069;SDS011;13064;48.162;11.536;2023-03-16T00:53:39;9.55;;;5.97;;
25069;SDS011;13064;48.162;11.536;2023-03-16T00:56:07;14.07;;;6.25;;
25069;SDS011;13064;48.162;11.536;2023-03-16T00:58:36;10.23;;;5.75;;
25069;SDS011;13064;48.162;11.536;2023-03-16T01:01:05;8.30;;;5.80;;
25069;SDS011;13064;48.162;11.536;2023-03-16T01:03:34;10.43;;;6.50;;
25069;SDS011;13064;48.162;11.536;2023-03-16T01:06:03;9.07;;;5.70;;
25069;SDS011;13064;48.162;11.536;2023-03-16T01:08:31;10.32;;;5.90;;
25069;SDS011;13064;48.162;11.536;2023-03-16T01:11:03;9.80;;;5.28;;
25069;SDS011;13064;48.162;11.536;2023-03-16T01:13:31;9.95;;;6.10;;
25069;SDS011;13064;48.162;11.536;2023-03-16T01:15:59;9.30;;;5.60;;
25069;SDS011;13064;48.162;11.536;2023-03-16T01:18:27;8.52;;;5.68;;
25069;SDS011;13064;48.162;11.536;2023-03-16T01:20:55;8.85;;;5.30;;
25069;SDS011;13064;48.162;11.536;2023-03-16T01:23:22;10.25;;;6.15;;
25069;SDS011;13064;48.162;11.536;2023-03-16T01:25:50;9.90;;;6.03;;
25069;SDS011;13064;48.162;11.536;2023-03-16T01:28:22;10.82;;;6.60;;
25069;SDS011;13064;48.162;11.536;2023-03-16T01:30:51;10.13;;;6.45;;
25069;SDS011;13064;48.162;11.536;2023-03-16T01:33:20;11.15;;;5.90;;
25069;SDS011;13064;48.162;11.536;2023-03-16T01:35:55;8.90;;;6.13;;
25069;SDS011;13064;48.162;11.536;2023-03-16T01:38:24;8.80;;;6.32;;
25069;SDS011;13064;48.162;11.536;2023-03-16T01:40:53;12.20;;;6.68;;
25069;SDS011;13064;48.162;11.536;2023-03-16T01:43:23;10.90;;;6.63;;
25069;SDS011;13064;48.162;11.536;2023-03-16T01:51:09;10.98;;;6.97;;
25069;SDS011;13064;48.162;11.536;2023-03-16T01:53:38;10.82;;;6.90;;
25069;SDS011;13064;48.162;11.536;2023-03-16T01:56:08;11.32;;;6.53;;
25069;SDS011;13064;48.162;11.536;2023-03-16T01:58:36;13.05;;;7.00;;
25069;SDS011;13064;48.162;11.536;2023-03-16T02:01:04;10.15;;;6.97;;
25069;SDS011;13064;48.162;11.536;2023-03-16T02:03:32;12.25;;;7.45;;
25069;SDS011;13064;48.162;11.536;2023-03-16T02:06:10;11.68;;;7.43;;
25069;SDS011;13064;48.162;11.536;2023-03-16T02:08:44;11.23;;;7.57;;
25069;SDS011;13064;48.162;11.536;2023-03-16T02:11:14;10.88;;;7.43;;
25069;SDS011;13064;48.162;11.536;2023-03-16T02:14:10;13.38;;;8.68;;
25069;SDS011;13064;48.162;11.536;2023-03-16T02:16:39;11.65;;;8.70;;
25069;SDS011;13064;48.162;11.536;2023-03-16T02:19:08;11.95;;;8.20;;
25069;SDS011;13064;48.162;11.536;2023-03-16T02:21:46;14.75;;;8.93;;
25069;SDS011;13064;48.162;11.536;2023-03-16T02:24:20;13.20;;;8.98;;
25069;SDS011;13064;48.162;11.536;2023-03-16T02:26:50;11.23;;;7.75;;
25069;SDS011;13064;48.162;11.536;2023-03-16T02:32:10;15.88;;;9.63;;
25069;SDS011;13064;48.162;11.536;2023-03-16T02:34:38;16.42;;;10.25;;
25069;SDS011;13064;48.162;11.536;2023-03-16T02:37:06;13.82;;;9.07;;
25069;SDS011;13064;48.162;11.536;2023-03-16T02:39:34;14.93;;;10.38;;
25069;SDS011;13064;48.162;11.536;2023-03-16T02:42:02;13.02;;;9.25;;
25069;SDS011;13064;48.162;11.536;2023-03-16T02:44:32;14.98;;;10.10;;
25069;SDS011;13064;48.162;11.536;2023-03-16T02:49:35;13.45;;;9.57;;
25069;SDS011;13064;48.162;11.536;2023-03-16T02:52:04;13.32;;;9.55;;
25069;SDS011;13064;48.162;11.536;2023-03-16T02:54:32;13.52;;;10.02;;
25069;SDS011;13064;48.162;11.536;2023-03-16T02:57:00;14.38;;;10.48;;
25069;SDS011;13064;48.162;11.536;2023-03-16T02:59:30;17.83;;;10.55;;
25069;SDS011;13064;48.162;11.536;2023-03-16T03:01:58;15.23;;;10.23;;
25069;SDS011;13064;48.162;11.536;2023-03-16T03:04:26;13.55;;;9.93;;
25069;SDS011;13064;48.162;11.536;2023-03-16T03:06:53;14.48;;;10.63;;
25069;SDS011;13064;48.162;11.536;2023-03-16T03:09:21;16.55;;;11.70;;
25069;SDS011;13064;48.162;11.536;2023-03-16T03:11:52;14.10;;;9.85;;
25069;SDS011;13064;48.162;11.536;2023-03-16T03:14:21;14.50;;;10.20;;
25069;SDS011;13064;48.162;11.536;2023-03-16T03:16:50;17.45;;;11.43;;
25069;SDS011;13064;48.162;11.536;2023-03-16T03:19:18;16.77;;;12.02;;
25069;SDS011;13064;48.162;11.536;2023-03-16T03:21:46;17.85;;;11.23;;
25069;SDS011;13064;48.162;11.536;2023-03-16T03:24:13;17.35;;;12.02;;
25069;SDS011;13064;48.162;11.536;2023-03-16T03:26:41;18.02;;;12.48;;
25069;SDS011;13064;48.162;11.536;2023-03-16T03:29:16;19.40;;;12.10;;
25069;SDS011;13064;48.162;11.536;2023-03-16T03:31:44;19.98;;;14.05;;
25069;SDS011;13064;48.162;11.536;2023-03-16T03:34:13;21.63;;;14.15;;
25069;SDS011;13064;48.162;11.536;2023-03-16T03:36:41;23.95;;;13.65;;
25069;SDS011;13064;48.162;11.536;2023-03-16T03:39:08;24.10;;;14.05;;
25069;SDS011;13064;48.162;11.536;2023-03-16T03:41:36;18.50;;;12.60;;
25069;SDS011;13064;48.162;11.536;2023-03-16T03:44:05;20.10;;;13.02;;
25069;SDS011;13064;48.162;11.536;2023-03-16T03:46:35;18.70;;;12.75;;
25069;SDS011;13064;48.162;11.536;2023-03-16T03:49:02;21.27;;;13.27;;
25069;SDS011;13064;48.162;11.536;2023-03-16T03:51:33;20.65;;;12.93;;
25069;SDS011;13064;48.162;11.536;2023-03-16T03:54:21;20.92;;;13.90;;
25069;SDS011;13064;48.162;11.536;2023-03-16T03:56:56;20.27;;;13.45;;
25069;SDS011;13064;48.162;11.536;2023-03-16T03:59:24;22.20;;;14.40;;
25069;SDS011;13064;48.162;11.536;2023-03-16T04:01:58;23.80;;;14.13;;
25069;SDS011;13064;48.162;11.536;2023-03-16T04:04:36;20.40;;;13.95;;
25069;SDS011;13064;48.162;11.536;2023-03-16T04:07:04;20.77;;;14.30;;
25069;SDS011;13064;48.162;11.536;2023-03-16T04:09:32;25.55;;;14.35;;
25069;SDS011;13064;48.162;11.536;2023-03-16T04:12:01;22.45;;;14.63;;
25069;SDS011;13064;48.162;11.536;2023-03-16T04:14:29;22.42;;;14.10;;
25069;SDS011;13064;48.162;11.536;2023-03-16T04:16:59;20.35;;;14.10;;
25069;SDS011;13064;48.162;11.536;2023-03-16T04:19:27;23.42;;;15.23;;
25069;SDS011;13064;48.162;11.536;2023-03-16T04:21:55;22.60;;;15.00;;
25069;SDS011;13064;48.162;11.536;2023-03-16T04:24:23;22.48;;;14.18;;
25069;SDS011;13064;48.162;11.536;2023-03-16T04:26:51;23.25;;;14.40;;
25069;SDS011;13064;48.162;11.536;2023-03-16T04:29:19;21.63;;;14.02;;
25069;SDS011;13064;48.162;11.536;2023-03-16T04:31:47;21.80;;;14.40;;
25069;SDS011;13064;48.162;11.536;2023-03-16T04:34:16;24.38;;;14.85;;
25069;SDS011;13064;48.162;11.536;2023-03-16T04:36:44;21.20;;;14.10;;
25069;SDS011;13064;48.162;11.536;2023-03-16T04:39:12;24.05;;;14.63;;
25069;SDS011;13064;48.162;11.536;2023-03-16T04:41:39;20.95;;;13.80;;
25069;SDS011;13064;48.162;11.536;2023-03-16T04:44:13;21.27;;;14.63;;
25069;SDS011;13064;48.162;11.536;2023-03-16T04:46:41;24.42;;;14.82;;
25069;SDS011;13064;48.162;11.536;2023-03-16T04:49:10;23.40;;;15.95;;
25069;SDS011;13064;48.162;11.536;2023-03-16T04:51:40;21.13;;;13.73;;
25069;SDS011;13064;48.162;11.536;2023-03-16T04:54:12;21.20;;;14.02;;
25069;SDS011;13064;48.162;11.536;2023-03-16T04:56:42;20.25;;;14.35;;
25069;SDS011;13064;48.162;11.536;2023-03-16T04:59:26;24.60;;;14.93;;
25069;SDS011;13064;48.162;11.536;2023-03-16T05:02:03;25.08;;;15.10;;
25069;SDS011;13064;48.162;11.536;2023-03-16T05:04:31;25.35;;;14.60;;
25069;SDS011;13064;48.162;11.536;2023-03-16T05:07:01;22.98;;;15.40;;
25069;SDS011;13064;48.162;11.536;2023-03-16T05:09:33;24.70;;;15.20;;
25069;SDS011;13064;48.162;11.536;2023-03-16T05:12:01;25.05;;;14.73;;
25069;SDS011;13064;48.162;11.536;2023-03-16T05:14:29;21.77;;;14.45;;
25069;SDS011;13064;48.162;11.536;2023-03-16T05:17:10;22.75;;;14.23;;
25069;SDS011;13064;48.162;11.536;2023-03-16T05:19:41;26.10;;;14.93;;
25069;SDS011;13064;48.162;11.536;2023-03-16T05:22:09;21.30;;;13.60;;
25069;SDS011;13064;48.162;11.536;2023-03-16T05:24:42;30.20;;;14.27;;
25069;SDS011;13064;48.162;11.536;2023-03-16T05:27:10;23.38;;;13.52;;
25069;SDS011;13064;48.162;11.536;2023-03-16T05:29:38;21.08;;;13.05;;
25069;SDS011;13064;48.162;11.536;2023-03-16T05:32:05;19.60;;;12.63;;
25069;SDS011;13064;48.162;11.536;2023-03-16T05:34:34;18.27;;;11.98;;
25069;SDS011;13064;48.162;11.536;2023-03-16T05:37:01;19.80;;;13.10;;
25069;SDS011;13064;48.162;11.536;2023-03-16T05:39:30;20.30;;;12.85;;
25069;SDS011;13064;48.162;11.536;2023-03-16T05:41:58;19.42;;;12.05;;
25069;SDS011;13064;48.162;11.536;2023-03-16T05:44:31;20.77;;;12.07;;
25069;SDS011;13064;48.162;11.536;2023-03-16T05:47:14;17.38;;;11.55;;
25069;SDS011;13064;48.162;11.536;2023-03-16T05:49:45;21.95;;;12.75;;
25069;SDS011;13064;48.162;11.536;2023-03-16T05:52:38;18.42;;;11.63;;
25069;SDS011;13064;48.162;11.536;2023-03-16T05:55:15;16.23;;;12.13;;
25069;SDS011;13064;48.162;11.536;2023-03-16T05:57:46;18.42;;;12.85;;
25069;SDS011;13064;48.162;11.536;2023-03-16T06:00:13;17.65;;;11.50;;
25069;SDS011;13064;48.162;11.536;2023-03-16T06:02:48;16.83;;;11.50;;
25069;SDS011;13064;48.162;11.536;2023-03-16T06:05:21;18.95;;;12.98;;
25069;SDS011;13064;48.162;11.536;2023-03-16T06:07:50;17.48;;;11.48;;
25069;SDS011;13064;48.162;11.536;2023-03-16T06:10:19;17.63;;;11.48;;
25069;SDS011;13064;48.162;11.536;2023-03-16T06:12:46;16.48;;;10.90;;
25069;SDS011;13064;48.162;11.536;2023-03-16T06:15:14;17.45;;;11.48;;
25069;SDS011;13064;48.162;11.536;2023-03-16T06:17:42;17.08;;;11.40;;
25069;SDS011;13064;48.162;11.536;2023-03-16T06:20:10;16.90;;;10.70;;
25069;SDS011;13064;48.162;11.536;2023-03-16T06:22:41;18.80;;;11.50;;
25069;SDS011;13064;48.162;11.536;2023-03-16T06:25:10;14.75;;;10.57;;
25069;SDS011;13064;48.162;11.536;2023-03-16T06:27:38;16.58;;;10.65;;
25069;SDS011;13064;48.162;11.536;2023-03-16T06:30:10;15.20;;;10.15;;
25069;SDS011;13064;48.162;11.536;2023-03-16T06:32:38;13.02;;;9.88;;
25069;SDS011;13064;48.162;11.536;2023-03-16T06:35:08;17.67;;;10.10;;
25069;SDS011;13064;48.162;11.536;2023-03-16T06:37:39;15.45;;;10.13;;
25069;SDS011;13064;48.162;11.536;2023-03-16T06:40:33;15.98;;;9.93;;
25069;SDS011;13064;48.162;11.536;2023-03-16T06:43:01;13.82;;;10.10;;
25069;SDS011;13064;48.162;11.536;2023-03-16T06:45:28;14.63;;;10.27;;
25069;SDS011;13064;48.162;11.536;2023-03-16T06:47:57;14.23;;;9.75;;
25069;SDS011;13064;48.162;11.536;2023-03-16T06:50:24;13.73;;;10.00;;
25069;SDS011;13064;48.162;11.536;2023-03-16T06:52:52;13.07;;;9.23;;
25069;SDS011;13064;48.162;11.536;2023-03-16T06:55:20;13.25;;;9.55;;
25069;SDS011;13064;48.162;11.536;2023-03-16T06:57:48;13.48;;;9.60;;
25069;SDS011;13064;48.162;11.536;2023-03-16T07:00:17;12.70;;;9.30;;
25069;SDS011;13064;48.162;11.536;2023-03-16T07:02:45;13.45;;;9.45;;
25069;SDS011;13064;48.162;11.536;2023-03-16T07:05:13;13.63;;;9.30;;
25069;SDS011;13064;48.162;11.536;2023-03-16T07:07:42;12.32;;;9.80;;
25069;SDS011;13064;48.162;11.536;2023-03-16T07:10:11;14.73;;;9.75;;
25069;SDS011;13064;48.162;11.536;2023-03-16T07:12:39;15.27;;;9.65;;
25069;SDS011;13064;48.162;11.536;2023-03-16T07:15:08;14.55;;;10.52;;
25069;SDS011;13064;48.162;11.536;2023-03-16T07:17:36;14.70;;;9.93;;
25069;SDS011;13064;48.162;11.536;2023-03-16T07:20:06;15.30;;;10.68;;
25069;SDS011;13064;48.162;11.536;2023-03-16T07:22:37;13.57;;;10.00;;
25069;SDS011;13064;48.162;11.536;2023-03-16T07:25:07;14.00;;;10.10;;
25069;SDS011;13064;48.162;11.536;2023-03-16T07:27:34;17.08;;;10.63;;
25069;SDS011;13064;48.162;11.536;2023-03-16T07:30:05;15.50;;;9.73;;
25069;SDS011;13064;48.162;11.536;2023-03-16T07:32:35;16.90;;;11.30;;
25069;SDS011;13064;48.162;11.536;2023-03-16T07:35:03;15.30;;;10.55;;
25069;SDS011;13064;48.162;11.536;2023-03-16T07:37:32;17.60;;;10.75;;
25069;SDS011;13064;48.162;11.536;2023-03-16T07:40:03;16.67;;;10.85;;
25069;SDS011;13064;48.162;11.536;2023-03-16T07:42:35;18.10;;;10.85;;
25069;SDS011;13064;48.162;11.536;2023-03-16T07:45:08;16.88;;;10.55;;
25069;SDS011;13064;48.162;11.536;2023-03-16T07:47:36;14.68;;;10.00;;
25069;SDS011;13064;48.162;11.536;2023-03-16T07:50:12;14.93;;;10.13;;
25069;SDS011;13064;48.162;11.536;2023-03-16T07:52:43;14.20;;;9.75;;
25069;SDS011;13064;48.162;11.536;2023-03-16T07:55:12;12.82;;;10.15;;
25069;SDS011;13064;48.162;11.536;2023-03-16T07:57:41;14.80;;;10.32;;
25069;SDS011;13064;48.162;11.536;2023-03-16T08:00:15;15.50;;;10.07;;
25069;SDS011;13064;48.162;11.536;2023-03-16T08:02:46;12.50;;;9.33;;
25069;SDS011;13064;48.162;11.536;2023-03-16T08:05:13;14.55;;;10.07;;
25069;SDS011;13064;48.162;11.536;2023-03-16T08:07:46;15.27;;;9.82;;
25069;SDS011;13064;48.162;11.536;2023-03-16T08:10:18;14.43;;;9.60;;
25069;SDS011;13064;48.162;11.536;2023-03-16T08:12:53;12.40;;;9.10;;
25069;SDS011;13064;48.162;11.536;2023-03-16T08:15:20;12.73;;;9.75;;
25069;SDS011;13064;48.162;11.536;2023-03-16T08:17:51;14.07;;;9.55;;
25069;SDS011;13064;48.162;11.536;2023-03-16T08:20:23;12.48;;;9.82;;
25069;SDS011;13064;48.162;11.536;2023-03-16T08:22:51;14.55;;;10.18;;
25069;SDS011;13064;48.162;11.536;2023-03-16T08:25:24;14.07;;;9.27;;
25069;SDS011;13064;48.162;11.536;2023-03-16T08:28:00;14.27;;;9.45;;
25069;SDS011;13064;48.162;11.536;2023-03-16T08:30:28;14.48;;;9.70;;
25069;SDS011;13064;48.162;11.536;2023-03-16T08:33:15;12.50;;;9.63;;
25069;SDS011;13064;48.162;11.536;2023-03-16T08:35:50;17.45;;;10.50;;
25069;SDS011;13064;48.162;11.536;2023-03-16T08:38:18;11.85;;;8.80;;
25069;SDS011;13064;48.162;11.536;2023-03-16T08:40:49;11.93;;;8.57;;
25069;SDS011;13064;48.162;11.536;2023-03-16T08:43:19;15.93;;;8.93;;
25069;SDS011;13064;48.162;11.536;2023-03-16T08:45:47;11.30;;;8.40;;
25069;SDS011;13064;48.162;11.536;2023-03-16T08:48:19;10.25;;;7.90;;
25069;SDS011;13064;48.162;11.536;2023-03-16T08:50:49;11.07;;;8.30;;
25069;SDS011;13064;48.162;11.536;2023-03-16T08:53:17;10.68;;;8.20;;
25069;SDS011;13064;48.162;11.536;2023-03-16T08:55:45;12.02;;;8.65;;
25069;SDS011;13064;48.162;11.536;2023-03-16T08:58:12;11.65;;;8.25;;
25069;SDS011;13064;48.162;11.536;2023-03-16T09:00:40;11.52;;;7.85;;
25069;SDS011;13064;48.162;11.536;2023-03-16T09:03:12;11.18;;;7.85;;
25069;SDS011;13064;48.162;11.536;2023-03-16T09:05:41;10.68;;;8.18;;
25069;SDS011;13064;48.162;11.536;2023-03-16T09:08:08;10.10;;;7.50;;
25069;SDS011;13064;48.162;11.536;2023-03-16T09:10:36;11.93;;;8.07;;
25069;SDS011;13064;48.162;11.536;2023-03-16T09:13:03;13.73;;;8.48;;
25069;SDS011;13064;48.162;11.536;2023-03-16T09:15:31;11.93;;;8.18;;
25069;SDS011;13064;48.162;11.536;2023-03-16T09:17:59;11.15;;;7.95;;
25069;SDS011;13064;48.162;11.536;2023-03-16T09:20:29;11.43;;;8.15;;
25069;SDS011;13064;48.162;11.536;2023-03-16T09:22:59;11.75;;;8.52;;
25069;SDS011;13064;48.162;11.536;2023-03-16T09:25:26;11.38;;;7.53;;
25069;SDS011;13064;48.162;11.536;2023-03-16T09:27:54;10.25;;;8.05;;
25069;SDS011;13064;48.162;11.536;2023-03-16T09:30:22;9.82;;;6.85;;
25069;SDS011;13064;48.162;11.536;2023-03-16T09:32:50;10.23;;;7.43;;
25069;SDS011;13064;48.162;11.536;2023-03-16T09:35:17;9.95;;;7.05;;
25069;SDS011;13064;48.162;11.536;2023-03-16T09:37:45;9.60;;;7.22;;
25069;SDS011;13064;48.162;11.536;2023-03-16T09:40:31;10.70;;;8.02;;
25069;SDS011;13064;48.162;11.536;2023-03-16T09:48:13;12.75;;;7.85;;
25069;SDS011;13064;48.162;11.536;2023-03-16T09:50:42;10.77;;;7.75;;
25069;SDS011;13064;48.162;11.536;2023-03-16T09:53:26;12.20;;;8.05;;
25069;SDS011;13064;48.162;11.536;2023-03-16T09:56:00;12.98;;;8.32;;
25069;SDS011;13064;48.162;11.536;2023-03-16T09:58:28;10.48;;;7.50;;
25069;SDS011;13064;48.162;11.536;2023-03-16T10:06:04;10.35;;;6.95;;
25069;SDS011;13064;48.162;11.536;2023-03-16T10:08:38;11.30;;;8.55;;
25069;SDS011;13064;48.162;11.536;2023-03-16T10:11:12;10.82;;;7.35;;
25069;SDS011;13064;48.162;11.536;2023-03-16T10:13:54;12.55;;;8.15;;
25069;SDS011;13064;48.162;11.536;2023-03-16T10:21:40;11.07;;;7.50;;
25069;SDS011;13064;48.162;11.536;2023-03-16T10:24:52;10.63;;;7.28;;
25069;SDS011;13064;48.162;11.536;2023-03-16T10:26:59;9.25;;;6.63;;
25069;SDS011;13064;48.162;11.536;2023-03-16T10:29:28;8.82;;;6.53;;
25069;SDS011;13064;48.162;11.536;2023-03-16T10:31:58;8.82;;;7.55;;
25069;SDS011;13064;48.162;11.536;2023-03-16T10:34:28;10.30;;;7.97;;
25069;SDS011;13064;48.162;11.536;2023-03-16T10:36:56;8.52;;;6.80;;
25069;SDS011;13064;48.162;11.536;2023-03-16T10:39:23;11.75;;;6.85;;
25069;SDS011;13064;48.162;11.536;2023-03-16T10:41:55;8.02;;;6.43;;
25069;SDS011;13064;48.162;11.536;2023-03-16T10:44:26;8.02;;;6.90;;
25069;SDS011;13064;48.162;11.536;2023-03-16T10:46:59;11.73;;;6.90;;
25069;SDS011;13064;48.162;11.536;2023-03-16T10:49:28;7.95;;;7.00;;
25069;SDS011;13064;48.162;11.536;2023-03-16T10:52:05;8.95;;;7.07;;
25069;SDS011;13064;48.162;11.536;2023-03-16T10:54:33;8.73;;;7.13;;
25069;SDS011;13064;48.162;11.536;2023-03-16T10:59:46;8.02;;;6.53;;
25069;SDS011;13064;48.162;11.536;2023-03-16T11:02:15;8.00;;;5.68;;
25069;SDS011;13064;48.162;11.536;2023-03-16T11:04:45;7.50;;;5.75;;
25069;SDS011;13064;48.162;11.536;2023-03-16T11:07:20;8.57;;;6.47;;
25069;SDS011;13064;48.162;11.536;2023-03-16T11:09:51;9.38;;;6.45;;
25069;SDS011;13064;48.162;11.536;2023-03-16T11:12:26;7.38;;;6.35;;
25069;SDS011;13064;48.162;11.536;2023-03-16T11:15:02;7.38;;;5.60;;
25069;SDS011;13064;48.162;11.536;2023-03-16T11:17:50;6.30;;;5.70;;
25069;SDS011;13064;48.162;11.536;2023-03-16T11:20:22;6.65;;;5.75;;
25069;SDS011;13064;48.162;11.536;2023-03-16T11:22:52;6.27;;;5.47;;
25069;SDS011;13064;48.162;11.536;2023-03-16T11:25:25;6.70;;;5.00;;
25069;SDS011;13064;48.162;11.536;2023-03-16T11:28:01;7.10;;;6.30;;
25069;SDS011;13064;48.162;11.536;2023-03-16T11:30:33;6.07;;;5.47;;
25069;SDS011;13064;48.162;11.536;2023-03-16T11:33:02;8.27;;;5.90;;
25069;SDS011;13064;48.162;11.536;2023-03-16T11:38:13;7.60;;;6.85;;
25069;SDS011;13064;48.162;11.536;2023-03-16T11:43:19;7.45;;;6.38;;
25069;SDS011;13064;48.162;11.536;2023-03-16T11:50:53;9.20;;;5.80;;
25069;SDS011;13064;48.162;11.536;2023-03-16T11:55:58;7.25;;;5.55;;
25069;SDS011;13064;48.162;11.536;2023-03-16T12:01:50;11.18;;;5.15;;
25069;SDS011;13064;48.162;11.536;2023-03-16T12:06:29;5.70;;;5.20;;
25069;SDS011;13064;48.162;11.536;2023-03-16T12:11:33;6.63;;;5.07;;
25069;SDS011;13064;48.162;11.536;2023-03-16T12:16:52;5.78;;;4.30;;
25069;SDS011;13064;48.162;11.536;2023-03-16T12:19:26;4.85;;;4.45;;
25069;SDS011;13064;48.162;11.536;2023-03-16T12:22:01;6.85;;;4.32;;
25069;SDS011;13064;48.162;11.536;2023-03-16T12:24:32;6.85;;;4.88;;
25069;SDS011;13064;48.162;11.536;2023-03-16T12:27:01;6.35;;;5.50;;
25069;SDS011;13064;48.162;11.536;2023-03-16T12:29:33;5.57;;;4.97;;
25069;SDS011;13064;48.162;11.536;2023-03-16T12:32:08;5.00;;;4.50;;
25069;SDS011;13064;48.162;11.536;2023-03-16T12:34:51;5.63;;;4.35;;
25069;SDS011;13064;48.162;11.536;2023-03-16T12:48:02;6.47;;;4.20;;
25069;SDS011;13064;48.162;11.536;2023-03-16T12:50:31;4.32;;;3.92;;
25069;SDS011;13064;48.162;11.536;2023-03-16T12:52:59;4.25;;;3.50;;
25069;SDS011;13064;48.162;11.536;2023-03-16T12:58:01;3.72;;;3.30;;
25069;SDS011;13064;48.162;11.536;2023-03-16T13:00:32;6.05;;;3.80;;
25069;SDS011;13064;48.162;11.536;2023-03-16T13:03:01;4.53;;;3.75;;
25069;SDS011;13064;48.162;11.536;2023-03-16T13:05:30;4.32;;;3.92;;
25069;SDS011;13064;48.162;11.536;2023-03-16T13:08:18;4.05;;;3.30;;
25069;SDS011;13064;48.162;11.536;2023-03-16T13:13:26;5.57;;;3.25;;
25069;SDS011;13064;48.162;11.536;2023-03-16T13:16:07;3.40;;;3.03;;
25069;SDS011;13064;48.162;11.536;2023-03-16T13:18:39;4.82;;;3.00;;
25069;SDS011;13064;48.162;11.536;2023-03-16T13:21:20;3.25;;;2.95;;
25069;SDS011;13064;48.162;11.536;2023-03-16T13:26:34;5.95;;;3.70;;
25069;SDS011;13064;48.162;11.536;2023-03-16T13:31:48;3.55;;;3.25;;
25069;SDS011;13064;48.162;11.536;2023-03-16T13:34:19;4.22;;;3.22;;
25069;SDS011;13064;48.162;11.536;2023-03-16T13:36:46;3.50;;;3.20;;
25069;SDS011;13064;48.162;11.536;2023-03-16T13:39:22;4.18;;;3.40;;
25069;SDS011;13064;48.162;11.536;2023-03-16T13:41:57;6.05;;;3.50;;
25069;SDS011;13064;48.162;11.536;2023-03-16T13:44:26;5.70;;;3.53;;
25069;SDS011;13064;48.162;11.536;2023-03-16T13:46:54;4.40;;;3.17;;
25069;SDS011;13064;48.162;11.536;2023-03-16T13:49:22;4.15;;;3.08;;
25069;SDS011;13064;48.162;11.536;2023-03-16T13:51:49;6.03;;;3.30;;
25069;SDS011;13064;48.162;11.536;2023-03-16T13:54:22;5.20;;;2.47;;
25069;SDS011;13064;48.162;11.536;2023-03-16T13:56:51;3.45;;;2.80;;
25069;SDS011;13064;48.162;11.536;2023-03-16T13:59:19;3.63;;;2.78;;
25069;SDS011;13064;48.162;11.536;2023-03-16T14:01:47;6.07;;;2.80;;
25069;SDS011;13064;48.162;11.536;2023-03-16T14:04:15;4.28;;;2.42;;
25069;SDS011;13064;48.162;11.536;2023-03-16T14:06:56;4.38;;;2.70;;
25069;SDS011;13064;48.162;11.536;2023-03-16T14:09:25;4.18;;;2.08;;
25069;SDS011;13064;48.162;11.536;2023-03-16T14:11:54;2.78;;;2.05;;
25069;SDS011;13064;48.162;11.536;2023-03-16T14:14:27;2.97;;;2.08;;
25069;SDS011;13064;48.162;11.536;2023-03-16T14:17:02;2.35;;;2.15;;
25069;SDS011;13064;48.162;11.536;2023-03-16T14:19:40;4.03;;;2.30;;
25069;SDS011;13064;48.162;11.536;2023-03-16T14:22:10;2.63;;;2.28;;
25069;SDS011;13064;48.162;11.536;2023-03-16T14:24:39;3.45;;;2.20;;
25069;SDS011;13064;48.162;11.536;2023-03-16T14:27:17;2.50;;;2.30;;
25069;SDS011;13064;48.162;11.536;2023-03-16T14:29:49;3.17;;;2.38;;
25069;SDS011;13064;48.162;11.536;2023-03-16T14:34:52;4.55;;;2.20;;
25069;SDS011;13064;48.162;11.536;2023-03-16T14:37:20;6.57;;;1.83;;
25069;SDS011;13064;48.162;11.536;2023-03-16T14:39:59;5.35;;;2.35;;
25069;SDS011;13064;48.162;11.536;2023-03-16T14:42:28;4.38;;;2.30;;
25069;SDS011;13064;48.162;11.536;2023-03-16T14:44:57;2.90;;;2.10;;
25069;SDS011;13064;48.162;11.536;2023-03-16T14:47:28;3.97;;;2.30;;
25069;SDS011;13064;48.162;11.536;2023-03-16T14:49:58;3.33;;;1.95;;
25069;SDS011;13064;48.162;11.536;2023-03-16T14:52:30;2.22;;;1.85;;
25069;SDS011;13064;48.162;11.536;2023-03-16T14:54:59;5.63;;;1.77;;
25069;SDS011;13064;48.162;11.536;2023-03-16T14:57:29;4.38;;;2.00;;
25069;SDS011;13064;48.162;11.536;2023-03-16T14:59:56;3.10;;;2.00;;
25069;SDS011;13064;48.162;11.536;2023-03-16T15:02:28;2.80;;;1.77;;
25069;SDS011;13064;48.162;11.536;2023-03-16T15:07:25;10.02;;;5.22;;
25069;SDS011;13064;48.162;11.536;2023-03-16T15:09:55;7.57;;;3.25;;
25069;SDS011;13064;48.162;11.536;2023-03-16T15:14:53;8.43;;;2.35;;
25069;SDS011;13064;48.162;11.536;2023-03-16T15:17:39;2.15;;;1.80;;
25069;SDS011;13064;48.162;11.536;2023-03-16T15:20:08;3.35;;;1.80;;
25069;SDS011;13064;48.162;11.536;2023-03-16T15:22:37;3.38;;;1.83;;
25069;SDS011;13064;48.162;11.536;2023-03-16T15:27:48;1.98;;;1.70;;
25069;SDS011;13064;48.162;11.536;2023-03-16T15:30:17;2.20;;;1.95;;
25069;SDS011;13064;48.162;11.536;2023-03-16T15:32:45;2.95;;;2.10;;
25069;SDS011;13064;48.162;11.536;2023-03-16T15:35:13;3.60;;;2.00;;
25069;SDS011;13064;48.162;11.536;2023-03-16T15:37:41;8.32;;;3.45;;
25069;SDS011;13064;48.162;11.536;2023-03-16T15:42:41;4.75;;;3.58;;
25069;SDS011;13064;48.162;11.536;2023-03-16T15:45:13;8.05;;;4.60;;
25069;SDS011;13064;48.162;11.536;2023-03-16T15:47:43;5.22;;;2.33;;
25069;SDS011;13064;48.162;11.536;2023-03-16T15:50:12;4.28;;;2.20;;
25069;SDS011;13064;48.162;11.536;2023-03-16T15:52:45;13.80;;;8.48;;
25069;SDS011;13064;48.162;11.536;2023-03-16T15:55:13;3.58;;;2.35;;
25069;SDS011;13064;48.162;11.536;2023-03-16T15:57:42;3.28;;;1.85;;
25069;SDS011;13064;48.162;11.536;2023-03-16T16:00:23;3.78;;;2.00;;
25069;SDS011;13064;48.162;11.536;2023-03-16T16:02:55;3.95;;;1.90;;
25069;SDS011;13064;48.162;11.536;2023-03-16T16:05:23;2.22;;;2.03;;
25069;SDS011;13064;48.162;11.536;2023-03-16T16:07:51;2.72;;;1.88;;
25069;SDS011;13064;48.162;11.536;2023-03-16T16:10:19;2.38;;;1.90;;
25069;SDS011;13064;48.162;11.536;2023-03-16T16:12:47;3.95;;;2.08;;